Time;durP1;ratioP1;P1;durP2;ratioP2;P2;SDS_P1;SDS_P2;PMS_P1;PMS_P2;Temp;Humidity;BMP_temperature;BMP_pressure;BME280_temperature;BME280_humidity;BME280_pressure;Samples;Min_cycle;Max_cycle;Signal;HPM_P1;HPM_P2
2022/10/08 00:02:06;;;;;;;;;;;22.20;45.30;21.00;101159.00;;;;5099971;28;19923;-67
2022/10/08 00:04:52;;;;;;;;;;;22.20;44.60;21.00;101154.00;;;;5092968;28;20112;-66
2022/10/08 00:07:40;;;;;;;;;;;22.20;44.60;21.00;101154.00;;;;5092725;28;20573;-67
2022/10/08 00:10:26;;;;;;;;;;;22.30;44.70;21.00;101154.00;;;;5106224;27;19915;-66
2022/10/08 00:13:12;;;;;;;;;;;22.20;44.60;21.00;101155.00;;;;5100658;28;19916;-67
2022/10/08 00:15:58;;;;;;;;;;;22.20;44.60;21.00;101156.00;;;;5096705;28;19920;-67
2022/10/08 00:18:45;;;;;;;;;;;22.20;44.60;21.00;101153.00;;;;5099767;28;19926;-66
2022/10/08 00:21:32;;;;;;;;;;;22.20;44.60;21.00;101154.00;;;;5111535;27;20022;-67
2022/10/08 00:24:20;;;;;;;;;;;22.20;44.60;21.00;101152.00;;;;5099516;28;19924;-67
2022/10/08 00:27:06;;;;;;;;;;;22.20;44.60;21.00;101156.00;;;;5096649;28;19920;-67
2022/10/08 00:29:52;;;;;;;;;;;22.20;44.60;21.00;101147.00;;;;5100326;28;19923;-67
2022/10/08 00:32:38;;;;;;;;;;;22.20;44.60;21.00;101142.00;;;;5098952;28;19968;-66
2022/10/08 00:35:24;;;;;;;;;;;22.20;44.60;21.00;101137.00;;;;5098711;28;19920;-66
2022/10/08 00:38:10;;;;;;;;;;;22.20;44.60;21.00;101139.00;;;;5091413;28;19931;-67
2022/10/08 00:40:56;;;;;;;;;;;22.20;44.60;21.00;101142.00;;;;5071993;28;19920;-66
2022/10/08 00:43:50;;;;;;;;;;;22.20;44.60;21.00;101139.00;;;;5080434;28;19924;-67
2022/10/08 00:46:47;;;;;;;;;;;22.20;44.60;21.00;101136.00;;;;5096273;28;20476;-66
2022/10/08 00:49:33;;;;;;;;;;;22.20;44.60;21.00;101134.00;;;;5095086;28;20189;-66
2022/10/08 00:52:19;;;;;;;;;;;22.20;44.60;21.00;101134.00;;;;5104948;28;19927;-67
2022/10/08 00:55:05;;;;;;;;;;;22.20;44.60;21.00;101128.00;;;;5097328;28;20120;-67
2022/10/08 00:57:51;;;;;;;;;;;22.20;44.60;21.00;101131.00;;;;5068043;28;19920;-67
2022/10/08 01:00:37;;;;;;;;;;;22.10;44.60;21.00;101123.00;;;;5104418;28;20323;-67
2022/10/08 01:03:23;;;;;;;;;;;22.20;44.60;21.00;101129.00;;;;5094783;28;20358;-67
2022/10/08 01:06:29;;;;;;;;;;;22.20;44.60;21.00;101128.00;;;;5104030;28;19920;-67
2022/10/08 01:09:30;;;;;;;;;;;22.20;44.60;21.00;101123.00;;;;5094367;28;19920;-67
2022/10/08 01:12:31;;;;;;;;;;;22.20;44.60;21.00;101122.00;;;;5094672;28;20015;-67
2022/10/08 01:15:34;;;;;;;;;;;22.20;44.70;20.90;101113.00;;;;5098559;28;19924;-67
2022/10/08 01:18:50;;;;;;;;;;;22.20;44.70;20.90;101115.00;;;;5093408;28;20305;-67
2022/10/08 01:21:43;;;;;;;;;;;22.20;44.70;21.00;101116.00;;;;5105462;28;19955;-67
2022/10/08 01:27:49;;;;;;;;;;;22.10;44.70;20.90;101114.00;;;;5091665;28;19926;-66
2022/10/08 01:30:36;;;;;;;;;;;22.10;44.70;21.00;101122.00;;;;5095578;28;19927;-66
2022/10/08 01:33:47;;;;;;;;;;;22.10;44.70;21.00;101117.00;;;;5108204;27;19916;-66
2022/10/08 01:36:37;;;;;;;;;;;22.20;44.70;21.00;101120.00;;;;5091498;28;19924;-66
2022/10/08 01:39:25;;;;;;;;;;;22.20;44.70;20.90;101124.00;;;;5112065;27;19920;-66
2022/10/08 01:42:11;;;;;;;;;;;22.10;44.60;21.00;101123.00;;;;5098516;28;19962;-66
2022/10/08 01:44:59;;;;;;;;;;;22.20;44.70;21.00;101129.00;;;;5112186;27;19920;-67
2022/10/08 01:47:45;;;;;;;;;;;22.10;44.60;20.90;101127.00;;;;5095869;28;19919;-66
2022/10/08 01:50:51;;;;;;;;;;;22.20;44.70;21.00;101128.00;;;;5113305;27;20036;-66
2022/10/08 01:53:40;;;;;;;;;;;22.10;44.60;21.00;101126.00;;;;5098426;28;19916;-67
2022/10/08 01:56:26;;;;;;;;;;;22.20;44.70;20.90;101124.00;;;;5099429;28;20010;-66
2022/10/08 01:59:15;;;;;;;;;;;22.10;44.60;21.00;101128.00;;;;5100771;28;19920;-67
2022/10/08 02:02:02;;;;;;;;;;;22.20;44.70;20.90;101118.00;;;;5095659;28;19920;-67
2022/10/08 02:04:52;;;;;;;;;;;22.10;44.70;20.90;101120.00;;;;5108053;27;19916;-67
2022/10/08 02:07:41;;;;;;;;;;;22.10;44.70;21.00;101120.00;;;;5074675;28;19916;-67
2022/10/08 02:10:27;;;;;;;;;;;22.20;44.70;20.90;101124.00;;;;5086495;28;19927;-67
2022/10/08 02:13:13;;;;;;;;;;;22.10;44.70;20.90;101126.00;;;;5083505;28;19916;-67
2022/10/08 02:16:02;;;;;;;;;;;22.10;44.70;20.90;101129.00;;;;5081579;28;19939;-67
2022/10/08 02:19:10;;;;;;;;;;;22.10;44.70;20.90;101122.00;;;;5100924;28;19916;-67
2022/10/08 02:21:56;;;;;;;;;;;22.20;44.70;21.00;101127.00;;;;5084621;28;20353;-67
2022/10/08 02:24:51;;;;;;;;;;;22.20;44.70;21.00;101130.00;;;;5094555;28;19970;-66
2022/10/08 02:28:22;;;;;;;;;;;22.10;44.70;20.90;101131.00;;;;5099211;28;19923;-66
2022/10/08 02:31:13;;;;;;;;;;;22.20;44.70;20.90;101140.00;;;;5090229;28;19920;-66
2022/10/08 02:34:26;;;;;;;;;;;22.20;44.70;20.90;101134.00;;;;5107897;27;19916;-66
2022/10/08 02:37:19;;;;;;;;;;;22.20;44.70;20.90;101135.00;;;;5103616;27;20369;-67
2022/10/08 02:40:07;;;;;;;;;;;22.10;44.70;20.90;101132.00;;;;5110342;27;19969;-66
2022/10/08 02:42:56;;;;;;;;;;;22.10;44.70;20.90;101133.00;;;;5101303;28;19961;-67
2022/10/08 02:45:45;;;;;;;;;;;22.10;44.70;20.90;101126.00;;;;5094543;28;19927;-67
2022/10/08 02:48:32;;;;;;;;;;;22.10;44.80;20.90;101130.00;;;;5091248;28;20002;-66
2022/10/08 02:51:18;;;;;;;;;;;22.10;44.80;20.80;101132.00;;;;5107162;27;19916;-67
2022/10/08 02:54:05;;;;;;;;;;;22.10;44.80;20.80;101136.00;;;;5098871;28;19939;-67
2022/10/08 02:56:54;;;;;;;;;;;22.10;44.80;20.80;101133.00;;;;5096183;28;20285;-67
2022/10/08 02:59:41;;;;;;;;;;;22.10;44.80;20.80;101128.00;;;;5107599;27;19916;-67
2022/10/08 03:02:36;;;;;;;;;;;22.10;44.80;20.80;101140.00;;;;5104581;27;19930;-66
2022/10/08 03:05:22;;;;;;;;;;;22.10;44.80;20.80;101146.00;;;;5109302;27;19916;-67
2022/10/08 03:08:10;;;;;;;;;;;22.10;44.90;20.80;101139.00;;;;5102285;28;19919;-66
2022/10/08 03:10:56;;;;;;;;;;;22.10;44.90;20.80;101147.00;;;;5095254;28;19920;-67
2022/10/08 03:13:44;;;;;;;;;;;22.10;44.90;20.80;101150.00;;;;5098713;28;19924;-66
2022/10/08 03:16:35;;;;;;;;;;;22.00;44.90;20.80;101162.00;;;;5103980;27;19984;-67
2022/10/08 03:19:21;;;;;;;;;;;22.10;45.00;20.80;101165.00;;;;5096542;28;19916;-66
2022/10/08 03:22:06;;;;;;;;;;;22.10;45.00;20.80;101168.00;;;;5082437;28;19990;-67
2022/10/08 03:24:52;;;;;;;;;;;22.00;44.90;20.80;101170.00;;;;5081090;28;19916;-66
2022/10/08 03:27:38;;;;;;;;;;;22.00;44.90;20.80;101157.00;;;;5099533;28;19923;-67
2022/10/08 03:30:24;;;;;;;;;;;22.00;45.00;20.80;101157.00;;;;5095864;28;19919;-67
2022/10/08 03:33:10;;;;;;;;;;;22.00;45.00;20.80;101167.00;;;;5111039;27;20394;-67
2022/10/08 03:35:57;;;;;;;;;;;22.00;45.10;20.80;101173.00;;;;5090464;28;20365;-66
2022/10/08 03:38:43;;;;;;;;;;;22.10;45.00;20.80;101159.00;;;;5111918;27;19919;-66
2022/10/08 03:41:30;;;;;;;;;;;22.00;45.00;20.80;101160.00;;;;5094142;28;19919;-66
2022/10/08 03:44:16;;;;;;;;;;;22.00;45.00;20.80;101156.00;;;;5094034;28;19916;-66
2022/10/08 03:47:02;;;;;;;;;;;22.00;45.10;20.80;101164.00;;;;5099784;28;19988;-66
2022/10/08 03:49:48;;;;;;;;;;;22.00;45.10;20.80;101163.00;;;;5090873;28;20060;-66
2022/10/08 03:52:34;;;;;;;;;;;22.00;45.20;20.80;101175.00;;;;5095967;28;20368;-66
2022/10/08 03:55:20;;;;;;;;;;;22.00;45.10;20.80;101171.00;;;;5093414;28;19919;-66
2022/10/08 03:58:06;;;;;;;;;;;22.00;45.20;20.80;101173.00;;;;5096333;28;19920;-67
2022/10/08 04:01:02;;;;;;;;;;;22.00;45.20;20.80;101176.00;;;;5095082;28;19920;-67
2022/10/08 04:03:48;;;;;;;;;;;22.00;45.20;20.80;101170.00;;;;5098310;28;19930;-66
2022/10/08 04:06:34;;;;;;;;;;;22.00;45.20;20.80;101170.00;;;;5097638;28;20093;-67
2022/10/08 04:09:20;;;;;;;;;;;22.10;45.30;20.80;101172.00;;;;5096886;28;20263;-66
2022/10/08 04:12:06;;;;;;;;;;;22.00;45.30;20.80;101171.00;;;;5101784;28;20051;-67
2022/10/08 04:14:52;;;;;;;;;;;22.10;45.30;20.80;101168.00;;;;5101183;28;19964;-67
2022/10/08 04:17:40;;;;;;;;;;;22.00;45.30;20.80;101161.00;;;;5103820;27;19924;-67
2022/10/08 04:20:26;;;;;;;;;;;22.00;45.30;20.80;101155.00;;;;5099137;28;19927;-66
2022/10/08 04:23:12;;;;;;;;;;;22.00;45.30;20.80;101155.00;;;;5090861;28;19920;-67
2022/10/08 04:25:57;;;;;;;;;;;22.00;45.30;20.80;101140.00;;;;5078636;28;19943;-67
2022/10/08 04:28:44;;;;;;;;;;;22.00;45.40;20.80;101144.00;;;;5103333;28;19935;-67
2022/10/08 04:31:29;;;;;;;;;;;22.00;45.40;20.80;101148.00;;;;5083214;28;20403;-67
2022/10/08 04:34:15;;;;;;;;;;;22.00;46.10;20.80;101159.00;;;;5087552;28;20014;-66
2022/10/08 04:37:01;;;;;;;;;;;22.00;46.10;20.80;101164.00;;;;5079073;28;19924;-67
2022/10/08 04:39:47;;;;;;;;;;;22.00;45.40;20.80;101151.00;;;;5085813;28;19928;-67
2022/10/08 04:42:33;;;;;;;;;;;22.00;45.40;20.80;101179.00;;;;5081800;28;19969;-66
2022/10/08 04:45:19;;;;;;;;;;;22.00;45.40;20.80;101171.00;;;;5070561;28;20012;-67
2022/10/08 04:48:05;;;;;;;;;;;22.00;45.40;20.80;101175.00;;;;5081574;28;20338;-66
2022/10/08 04:50:56;;;;;;;;;;;22.00;45.40;20.80;101178.00;;;;5074627;28;19924;-67
2022/10/08 04:53:42;;;;;;;;;;;22.00;45.50;20.80;101170.00;;;;5090537;28;20385;-67
2022/10/08 04:56:29;;;;;;;;;;;22.10;45.50;20.80;101178.00;;;;5070798;28;19920;-66
2022/10/08 04:59:15;;;;;;;;;;;22.00;45.50;20.80;101187.00;;;;5057632;28;19925;-66
2022/10/08 05:02:01;;;;;;;;;;;22.10;45.50;20.80;101185.00;;;;5076260;28;19924;-67
2022/10/08 05:04:47;;;;;;;;;;;22.10;45.50;20.80;101192.00;;;;5078625;28;19916;-66
2022/10/08 05:07:33;;;;;;;;;;;22.00;45.50;20.80;101192.00;;;;5086100;28;19916;-67
2022/10/08 05:10:19;;;;;;;;;;;22.00;45.50;20.80;101195.00;;;;5089370;28;20297;-67
2022/10/08 05:13:05;;;;;;;;;;;22.10;45.50;20.80;101198.00;;;;5082573;28;19926;-66
2022/10/08 05:15:51;;;;;;;;;;;22.00;45.50;20.80;101197.00;;;;5077455;28;20662;-66
2022/10/08 05:18:37;;;;;;;;;;;22.10;45.60;20.80;101215.00;;;;5073827;28;20348;-66
2022/10/08 05:21:25;;;;;;;;;;;22.00;45.60;20.80;101216.00;;;;5077044;28;19959;-66
2022/10/08 05:24:11;;;;;;;;;;;22.00;45.50;20.80;101217.00;;;;5074069;28;20389;-66
2022/10/08 05:26:57;;;;;;;;;;;22.00;45.60;20.80;101217.00;;;;5076794;28;19923;-66
2022/10/08 05:29:43;;;;;;;;;;;22.00;45.60;20.80;101222.00;;;;5065820;28;19915;-66
2022/10/08 05:32:29;;;;;;;;;;;22.10;45.60;20.80;101227.00;;;;5074751;28;19926;-67
2022/10/08 05:35:15;;;;;;;;;;;22.10;45.60;20.80;101234.00;;;;5083482;28;19924;-66
2022/10/08 05:38:01;;;;;;;;;;;22.00;45.60;20.80;101235.00;;;;5067512;28;19935;-66
2022/10/08 05:40:46;;;;;;;;;;;22.00;45.60;20.80;101241.00;;;;5073421;28;19917;-66
2022/10/08 05:43:32;;;;;;;;;;;22.00;45.70;20.80;101242.00;;;;5066379;28;20388;-66
2022/10/08 05:46:19;;;;;;;;;;;22.00;45.70;20.80;101233.00;;;;5081129;28;20235;-66
2022/10/08 05:49:06;;;;;;;;;;;22.00;45.70;20.80;101235.00;;;;5079456;28;20013;-67
2022/10/08 05:51:52;;;;;;;;;;;22.00;45.70;20.80;101245.00;;;;5089523;28;19920;-66
2022/10/08 05:54:38;;;;;;;;;;;22.00;45.70;20.80;101253.00;;;;5082887;28;19916;-66
2022/10/08 05:57:24;;;;;;;;;;;22.00;45.70;20.80;101250.00;;;;5088917;28;19920;-68
2022/10/08 06:00:10;;;;;;;;;;;22.00;45.80;20.70;101259.00;;;;5077940;28;19923;-68
2022/10/08 06:02:56;;;;;;;;;;;21.90;45.70;20.70;101256.00;;;;5087830;28;20419;-67
2022/10/08 06:05:42;;;;;;;;;;;21.90;45.80;20.70;101250.00;;;;5078787;28;20348;-67
2022/10/08 06:08:28;;;;;;;;;;;21.90;45.70;20.70;101253.00;;;;5078436;28;19928;-67
2022/10/08 06:11:14;;;;;;;;;;;21.90;45.80;20.70;101258.00;;;;5091274;27;19924;-67
2022/10/08 06:14:00;;;;;;;;;;;22.00;45.90;20.70;101269.00;;;;5075014;28;19916;-66
2022/10/08 06:16:46;;;;;;;;;;;21.90;45.80;20.70;101274.00;;;;5088336;27;19935;-67
2022/10/08 06:19:34;;;;;;;;;;;21.90;45.80;20.70;101275.00;;;;5074962;28;19922;-66
2022/10/08 06:22:20;;;;;;;;;;;21.90;45.90;20.70;101274.00;;;;5074227;28;19924;-67
2022/10/08 06:25:06;;;;;;;;;;;21.90;45.90;20.70;101273.00;;;;5073853;28;19947;-66
2022/10/08 06:27:52;;;;;;;;;;;21.90;45.90;20.70;101279.00;;;;5082300;28;20027;-67
2022/10/08 06:30:42;;;;;;;;;;;21.90;45.90;20.70;101288.00;;;;5076016;28;19916;-66
2022/10/08 06:33:28;;;;;;;;;;;21.90;45.90;20.70;101293.00;;;;5058966;28;19920;-66
2022/10/08 06:36:19;;;;;;;;;;;21.90;45.90;20.70;101293.00;;;;5064772;28;20012;-66
2022/10/08 06:39:07;;;;;;;;;;;21.90;46.70;20.70;101298.00;;;;5078361;28;19916;-66
2022/10/08 06:41:53;;;;;;;;;;;21.90;45.90;20.70;101306.00;;;;5089241;28;20281;-66
2022/10/08 06:44:39;;;;;;;;;;;21.90;46.00;20.70;101307.00;;;;5078377;28;20437;-66
2022/10/08 06:47:25;;;;;;;;;;;21.90;46.00;20.70;101317.00;;;;5082735;28;19916;-67
2022/10/08 06:50:11;;;;;;;;;;;21.90;46.00;20.70;101320.00;;;;5081822;28;20377;-67
2022/10/08 06:52:57;;;;;;;;;;;21.90;46.00;20.70;101329.00;;;;5076319;28;19969;-67
2022/10/08 06:55:42;;;;;;;;;;;21.90;46.00;20.70;101319.00;;;;5076082;28;19920;-67
2022/10/08 06:58:29;;;;;;;;;;;21.90;46.00;20.70;101331.00;;;;5088292;27;19926;-67
2022/10/08 07:01:16;;;;;;;;;;;21.90;46.00;20.70;101337.00;;;;5088734;28;20332;-66
2022/10/08 07:04:03;;;;;;;;;;;21.90;46.10;20.70;101341.00;;;;5063668;28;19923;-67
2022/10/08 07:06:49;;;;;;;;;;;21.90;46.10;20.70;101346.00;;;;5078918;28;19931;-66
2022/10/08 07:09:35;;;;;;;;;;;21.90;46.10;20.70;101359.00;;;;5073084;28;19916;-67
2022/10/08 07:12:21;;;;;;;;;;;21.90;46.10;20.70;101355.00;;;;5074212;28;19920;-66
2022/10/08 07:15:07;;;;;;;;;;;21.90;46.10;20.70;101362.00;;;;5084593;28;19924;-66
2022/10/08 07:17:53;;;;;;;;;;;21.90;46.20;20.60;101361.00;;;;5075245;28;19920;-66
2022/10/08 07:20:39;;;;;;;;;;;21.90;46.10;20.70;101359.00;;;;5076189;28;19917;-67
2022/10/08 07:23:25;;;;;;;;;;;21.90;46.20;20.70;101365.00;;;;5069309;28;19988;-66
2022/10/08 07:26:13;;;;;;;;;;;21.90;46.10;20.60;101367.00;;;;5094308;28;20477;-65
2022/10/08 07:29:01;;;;;;;;;;;21.90;46.20;20.60;101377.00;;;;5090230;27;20003;-65
2022/10/08 07:31:47;;;;;;;;;;;21.90;46.30;20.60;101380.00;;;;5076865;28;19962;-65
2022/10/08 07:34:33;;;;;;;;;;;21.90;46.20;20.60;101393.00;;;;5078108;28;19920;-65
2022/10/08 07:37:19;;;;;;;;;;;21.90;46.20;20.60;101390.00;;;;5097158;27;19935;-66
2022/10/08 07:40:05;;;;;;;;;;;21.90;46.20;20.60;101392.00;;;;5098148;27;19922;-65
2022/10/08 07:42:51;;;;;;;;;;;21.90;46.20;20.60;101400.00;;;;5091007;28;19952;-65
2022/10/08 07:45:42;;;;;;;;;;;21.90;46.20;20.60;101405.00;;;;5092865;28;19915;-65
2022/10/08 07:48:29;;;;;;;;;;;21.90;46.30;20.60;101400.00;;;;5104646;27;19915;-65
2022/10/08 07:51:16;;;;;;;;;;;21.90;46.30;20.60;101411.00;;;;5090842;28;20026;-65
2022/10/08 07:54:03;;;;;;;;;;;21.90;46.30;20.60;101413.00;;;;5090074;28;19920;-66
2022/10/08 07:56:49;;;;;;;;;;;21.80;46.30;20.60;101417.00;;;;5102745;27;19920;-65
2022/10/08 07:59:35;;;;;;;;;;;21.80;46.30;20.60;101425.00;;;;5076620;28;20388;-65
2022/10/08 08:02:21;;;;;;;;;;;21.80;46.30;20.50;101421.00;;;;5075840;28;20349;-65
2022/10/08 08:05:07;;;;;;;;;;;21.80;46.30;20.50;101420.00;;;;5078248;28;19963;-66
2022/10/08 08:07:53;;;;;;;;;;;21.80;46.30;20.50;101431.00;;;;5075320;28;19917;-65
2022/10/08 08:10:39;;;;;;;;;;;21.80;46.30;20.50;101429.00;;;;5078044;28;19923;-65
2022/10/08 08:13:34;;;;;;;;;;;21.80;46.30;20.50;101432.00;;;;5078260;28;19994;-65
2022/10/08 08:16:21;;;;;;;;;;;21.80;46.40;20.50;101434.00;;;;5080549;28;19916;-65
2022/10/08 08:19:07;;;;;;;;;;;21.80;46.40;20.60;101435.00;;;;5083795;28;19919;-65
2022/10/08 08:21:53;;;;;;;;;;;21.80;46.40;20.50;101438.00;;;;5072944;28;19917;-65
2022/10/08 08:24:39;;;;;;;;;;;21.80;46.40;20.50;101456.00;;;;5072375;28;19923;-65
2022/10/08 08:27:25;;;;;;;;;;;21.80;46.50;20.50;101450.00;;;;5072342;28;19916;-65
2022/10/08 08:30:12;;;;;;;;;;;21.80;46.50;20.50;101454.00;;;;5075047;28;19932;-65
2022/10/08 08:32:58;;;;;;;;;;;21.80;46.40;20.60;101457.00;;;;5075122;28;19916;-65
2022/10/08 08:35:51;;;;;;;;;;;21.80;46.50;20.60;101463.00;;;;5072204;28;20134;-65
2022/10/08 08:38:37;;;;;;;;;;;21.80;46.50;20.60;101470.00;;;;5104352;27;20382;-65
2022/10/08 08:41:29;;;;;;;;;;;21.80;46.50;20.50;101473.00;;;;5096292;28;20373;-65
2022/10/08 08:44:15;;;;;;;;;;;21.80;46.50;20.60;101480.00;;;;5092582;28;19923;-65
2022/10/08 08:47:19;;;;;;;;;;;21.80;46.50;20.50;101481.00;;;;5085835;28;20357;-65
2022/10/08 08:50:12;;;;;;;;;;;21.80;46.50;20.50;101474.00;;;;5093725;27;19970;-65
2022/10/08 08:52:58;;;;;;;;;;;21.80;46.50;20.50;101488.00;;;;5093912;27;19920;-67
2022/10/08 08:55:46;;;;;;;;;;;21.80;46.50;20.50;101489.00;;;;5080379;28;19916;-63
2022/10/08 08:58:44;;;;;;;;;;;21.80;46.50;20.50;101485.00;;;;5082150;28;19928;-63
2022/10/08 09:01:34;;;;;;;;;;;21.80;46.50;20.50;101485.00;;;;5086894;28;20471;-62
2022/10/08 09:04:23;;;;;;;;;;;21.80;46.40;20.60;101490.00;;;;5087015;28;19942;-62
2022/10/08 09:07:12;;;;;;;;;;;21.80;46.50;20.60;101496.00;;;;5083636;28;19998;-63
2022/10/08 09:09:58;;;;;;;;;;;21.80;46.50;20.60;101496.00;;;;5054419;28;19926;-63
2022/10/08 09:12:44;;;;;;;;;;;21.80;46.50;20.60;101504.00;;;;5082466;28;19920;-62
2022/10/08 09:15:33;;;;;;;;;;;21.80;46.50;20.60;101509.00;;;;5088460;28;19920;-62
2022/10/08 09:18:19;;;;;;;;;;;21.80;46.50;20.60;101517.00;;;;5091621;27;19924;-62
2022/10/08 09:21:05;;;;;;;;;;;21.90;46.50;20.60;101514.00;;;;5082073;28;19916;-62
2022/10/08 09:23:51;;;;;;;;;;;21.90;46.50;20.60;101520.00;;;;5087055;28;19924;-62
2022/10/08 09:26:37;;;;;;;;;;;21.90;46.50;20.70;101516.00;;;;5084621;28;19920;-64
2022/10/08 09:29:32;;;;;;;;;;;21.90;46.50;20.60;101525.00;;;;5084319;28;19993;-63
2022/10/08 09:32:19;;;;;;;;;;;21.90;46.50;20.60;101534.00;;;;5073143;28;19920;-64
2022/10/08 09:35:06;;;;;;;;;;;21.90;46.50;20.60;101529.00;;;;5096541;27;19982;-63
2022/10/08 09:37:52;;;;;;;;;;;21.90;46.50;20.60;101519.00;;;;5066198;28;19924;-63
2022/10/08 09:40:38;;;;;;;;;;;21.90;46.50;20.60;101525.00;;;;5077781;28;20374;-63
2022/10/08 09:43:25;;;;;;;;;;;21.90;46.40;20.60;101526.00;;;;5101787;28;19916;-63
2022/10/08 09:46:28;;;;;;;;;;;21.90;46.40;20.60;101529.00;;;;5067113;28;19920;-64
2022/10/08 09:49:25;;;;;;;;;;;21.90;46.40;20.60;101527.00;;;;5084700;28;19924;-63
2022/10/08 09:52:20;;;;;;;;;;;21.90;46.50;20.60;101538.00;;;;5079255;28;19947;-64
2022/10/08 09:55:08;;;;;;;;;;;21.90;46.40;20.60;101539.00;;;;5086720;27;19923;-64
2022/10/08 09:57:59;;;;;;;;;;;21.90;46.40;20.60;101552.00;;;;5062392;28;19955;-64
2022/10/08 10:00:45;;;;;;;;;;;21.90;46.40;20.60;101552.00;;;;5080240;28;19919;-64
2022/10/08 10:03:31;;;;;;;;;;;21.90;46.40;20.60;101549.00;;;;5078364;28;19938;-63
2022/10/08 10:06:24;;;;;;;;;;;21.90;46.40;20.70;101556.00;;;;5092586;28;20366;-64
2022/10/08 10:09:10;;;;;;;;;;;21.90;46.30;20.70;101557.00;;;;5091987;27;20322;-64
2022/10/08 10:12:00;;;;;;;;;;;21.90;46.30;20.60;101558.00;;;;5082306;28;19944;-63
2022/10/08 10:14:56;;;;;;;;;;;21.90;46.30;20.60;101553.00;;;;5090871;28;19924;-62
2022/10/08 10:18:03;;;;;;;;;;;21.90;46.20;20.60;101553.00;;;;5076994;28;19928;-69
2022/10/08 10:20:51;;;;;;;;;;;22.00;46.30;20.60;101553.00;;;;5049017;28;20434;-65
2022/10/08 10:23:45;;;;;;;;;;;21.90;46.10;20.60;101552.00;;;;5085692;28;20538;-65
2022/10/08 10:26:36;;;;;;;;;;;22.00;46.20;20.60;101548.00;;;;5086597;27;19925;-72
2022/10/08 10:29:22;;;;;;;;;;;21.90;46.10;20.60;101558.00;;;;5079981;28;20379;-66
2022/10/08 10:32:14;;;;;;;;;;;21.90;46.10;20.60;101568.00;;;;5076375;28;20330;-66
2022/10/08 10:35:16;;;;;;;;;;;22.00;46.20;20.70;101560.00;;;;5066770;28;19919;-66
2022/10/08 10:38:06;;;;;;;;;;;21.90;46.10;20.70;101563.00;;;;5061138;28;20402;-66
2022/10/08 10:41:21;;;;;;;;;;;22.00;46.20;20.70;101566.00;;;;5040691;28;20017;-67
2022/10/08 10:44:12;;;;;;;;;;;22.00;46.30;20.70;101565.00;;;;5069643;28;20317;-66
2022/10/08 10:46:58;;;;;;;;;;;22.00;46.20;20.80;101574.00;;;;5064448;28;19962;-66
2022/10/08 10:49:44;;;;;;;;;;;22.00;46.20;20.80;101571.00;;;;5059369;28;19924;-66
2022/10/08 10:52:42;;;;;;;;;;;22.00;46.10;20.80;101570.00;;;;5078831;28;19916;-66
2022/10/08 10:55:37;;;;;;;;;;;22.00;46.00;20.70;101569.00;;;;5080911;28;19917;-66
2022/10/08 10:58:54;;;;;;;;;;;22.00;45.90;20.70;101569.00;;;;5089646;27;19932;-67
2022/10/08 11:01:57;;;;;;;;;;;22.10;45.90;20.70;101570.00;;;;5091780;27;19923;-67
2022/10/08 11:05:09;;;;;;;;;;;22.00;45.90;20.70;101568.00;;;;5091113;27;20366;-66
2022/10/08 11:08:10;;;;;;;;;;;22.00;45.90;20.80;101576.00;;;;5088871;27;19959;-67
2022/10/08 11:11:16;;;;;;;;;;;22.10;45.90;20.70;101581.00;;;;5080810;28;19920;-67
2022/10/08 11:14:34;;;;;;;;;;;22.10;45.90;20.70;101579.00;;;;5074278;28;20102;-66
2022/10/08 11:17:53;;;;;;;;;;;22.10;45.80;20.80;101586.00;;;;5078659;28;20011;-66
2022/10/08 11:20:54;;;;;;;;;;;22.10;45.80;20.70;101583.00;;;;5076935;28;19922;-66
2022/10/08 11:23:39;;;;;;;;;;;22.10;45.80;20.80;101581.00;;;;5081092;28;19923;-66
2022/10/08 11:26:48;;;;;;;;;;;22.10;45.80;20.80;101590.00;;;;5080908;28;20435;-66
2022/10/08 11:29:56;;;;;;;;;;;22.10;45.70;20.70;101595.00;;;;5086525;28;19954;-67
2022/10/08 11:32:43;;;;;;;;;;;22.10;45.70;20.80;101588.00;;;;5078152;28;20011;-66
2022/10/08 11:35:48;;;;;;;;;;;22.10;45.80;20.80;101576.00;;;;5064341;28;20328;-67
2022/10/08 11:38:41;;;;;;;;;;;22.00;45.80;20.80;101595.00;;;;5086878;28;19920;-66
2022/10/08 11:41:31;;;;;;;;;;;22.10;45.80;20.80;101584.00;;;;5099930;27;19920;-66
2022/10/08 11:44:17;;;;;;;;;;;22.00;45.70;20.80;101585.00;;;;5077182;28;19923;-66
2022/10/08 11:47:40;;;;;;;;;;;22.10;45.70;20.80;101581.00;;;;5082401;28;20303;-67
2022/10/08 11:50:26;;;;;;;;;;;22.10;45.70;20.80;101588.00;;;;5082321;28;20267;-66
2022/10/08 11:53:17;;;;;;;;;;;22.10;45.60;20.80;101585.00;;;;5088739;28;19916;-66
2022/10/08 11:56:03;;;;;;;;;;;22.10;45.60;20.80;101581.00;;;;5078070;28;19925;-67
2022/10/08 11:58:52;;;;;;;;;;;22.10;45.50;20.80;101580.00;;;;5062463;28;19920;-66
2022/10/08 12:01:55;;;;;;;;;;;22.10;45.50;20.80;101581.00;;;;5090405;28;19916;-66
2022/10/08 12:04:41;;;;;;;;;;;22.10;45.40;20.80;101588.00;;;;5073388;28;20692;-66
2022/10/08 12:07:34;;;;;;;;;;;22.10;45.50;20.80;101591.00;;;;5082409;28;19924;-66
2022/10/08 12:10:34;;;;;;;;;;;22.10;45.40;20.80;101595.00;;;;5089212;28;19916;-67
2022/10/08 12:13:25;;;;;;;;;;;22.10;45.60;20.80;101591.00;;;;5102180;27;19920;-67
2022/10/08 12:16:11;;;;;;;;;;;22.10;45.60;20.80;101592.00;;;;5077204;28;19920;-66
2022/10/08 12:18:57;;;;;;;;;;;22.10;45.50;20.80;101599.00;;;;5080862;28;19966;-67
2022/10/08 12:21:47;;;;;;;;;;;22.10;45.50;20.80;101600.00;;;;5075468;28;20263;-67
2022/10/08 12:24:36;;;;;;;;;;;22.10;45.50;20.80;101608.00;;;;5081071;28;20019;-66
2022/10/08 12:27:23;;;;;;;;;;;22.10;45.40;20.80;101615.00;;;;5076903;28;19916;-66
2022/10/08 12:30:15;;;;;;;;;;;22.20;45.40;20.80;101605.00;;;;5082300;28;19927;-66
2022/10/08 12:33:01;;;;;;;;;;;22.20;45.40;20.80;101614.00;;;;5081815;28;19928;-66
2022/10/08 12:36:09;;;;;;;;;;;22.20;45.30;20.80;101615.00;;;;5083181;28;19923;-66
2022/10/08 12:39:10;;;;;;;;;;;22.20;45.30;20.80;101615.00;;;;5081529;28;20255;-66
2022/10/08 12:42:12;;;;;;;;;;;22.20;45.40;20.80;101618.00;;;;5096179;28;19920;-66
2022/10/08 12:45:19;;;;;;;;;;;22.20;45.20;20.80;101614.00;;;;5085215;28;19917;-66
2022/10/08 12:48:32;;;;;;;;;;;22.20;45.20;20.80;101613.00;;;;5088493;28;19916;-66
2022/10/08 12:51:24;;;;;;;;;;;22.20;45.00;20.80;101628.00;;;;5064781;28;19920;-66
2022/10/08 12:54:17;;;;;;;;;;;22.20;45.10;20.80;101639.00;;;;5076299;28;20434;-66
2022/10/08 12:57:08;;;;;;;;;;;22.20;45.20;20.80;101654.00;;;;5049064;28;20388;-66
2022/10/08 12:59:54;;;;;;;;;;;22.20;45.20;20.80;101644.00;;;;5073010;28;19917;-66
2022/10/08 13:02:40;;;;;;;;;;;22.10;45.00;20.80;101642.00;;;;5078982;28;19916;-66
2022/10/08 13:05:30;;;;;;;;;;;22.20;45.00;20.80;101644.00;;;;5086313;28;20666;-66
2022/10/08 13:08:24;;;;;;;;;;;22.20;44.90;20.80;101656.00;;;;5064925;28;19916;-66
2022/10/08 13:11:14;;;;;;;;;;;22.20;44.90;20.80;101641.00;;;;5065053;28;19921;-66
2022/10/08 13:14:00;;;;;;;;;;;22.20;45.00;20.80;101638.00;;;;5047476;28;19928;-67
2022/10/08 13:16:46;;;;;;;;;;;22.20;44.90;20.90;101628.00;;;;5074991;28;19916;-67
2022/10/08 13:19:35;;;;;;;;;;;22.20;44.90;20.90;101648.00;;;;5073647;28;19925;-67
2022/10/08 13:22:23;;;;;;;;;;;22.20;44.80;20.90;101645.00;;;;5089667;28;19920;-67
2022/10/08 13:25:32;;;;;;;;;;;22.20;44.80;20.90;101650.00;;;;5075386;28;19920;-66
2022/10/08 13:28:22;;;;;;;;;;;22.20;44.80;20.90;101654.00;;;;5077580;28;20210;-67
2022/10/08 13:31:19;;;;;;;;;;;22.20;44.80;20.90;101654.00;;;;5065446;28;20451;-67
2022/10/08 13:34:14;;;;;;;;;;;22.20;44.90;20.90;101660.00;;;;5054539;28;19916;-67
2022/10/08 13:37:03;;;;;;;;;;;22.20;44.80;20.90;101658.00;;;;5085327;27;19985;-67
2022/10/08 13:39:52;;;;;;;;;;;22.30;44.90;20.90;101655.00;;;;5075333;28;19920;-67
2022/10/08 13:42:43;;;;;;;;;;;22.20;44.90;20.90;101658.00;;;;5089007;28;19958;-67
2022/10/08 13:45:35;;;;;;;;;;;22.30;44.90;20.90;101657.00;;;;5111535;27;19922;-67